Time;durP1;ratioP1;P1;durP2;ratioP2;P2;SDS_P1;SDS_P2;PMS_P1;PMS_P2;Temp;Humidity;BMP_temperature;BMP_pressure;BME280_temperature;BME280_humidity;BME280_pressure;Samples;Min_cycle;Max_cycle;Signal;HPM_P1;HPM_P2
2021/06/04 00:00:59;;;;;;;3.80;3.50;;;;;;;23.32;41.14;101075.06;4905901;29;20130;-62
2021/06/04 00:03:26;;;;;;;3.53;3.22;;;;;;;23.31;41.31;101081.38;4907930;29;20062;-62
2021/06/04 00:05:54;;;;;;;3.60;3.30;;;;;;;23.31;41.31;101077.88;4902847;29;20050;-62
2021/06/04 00:08:24;;;;;;;5.80;4.07;;;;;;;23.28;41.08;101079.00;4903915;29;20052;-61
2021/06/04 00:10:59;;;;;;;5.55;3.53;;;;;;;23.27;40.83;101074.63;4904469;29;20480;-63
2021/06/04 00:13:41;;;;;;;4.78;4.05;;;;;;;23.27;40.58;101064.84;4906908;29;20067;-62
2021/06/04 00:16:17;;;;;;;3.88;3.42;;;;;;;23.24;41.03;101065.13;4905608;29;20582;-62
2021/06/04 00:18:45;;;;;;;4.57;3.83;;;;;;;23.21;41.20;101067.22;4906182;29;20045;-64
2021/06/04 00:21:19;;;;;;;5.03;3.38;;;;;;;23.18;41.25;101067.50;4903711;29;20075;-63
2021/06/04 00:23:46;;;;;;;;;;;;;;;23.13;41.42;101056.44;4907256;29;20474;-63
2021/06/04 00:26:14;;;;;;;6.50;4.00;;;;;;;23.18;41.36;101063.03;4903035;29;19931;-62
2021/06/04 00:28:42;;;;;;;3.45;3.17;;;;;;;23.15;41.19;101067.78;4905569;29;20048;-63
2021/06/04 00:31:09;;;;;;;5.30;3.78;;;;;;;23.15;41.21;101062.44;4905515;29;20052;-63
2021/06/04 00:33:36;;;;;;;6.40;4.47;;;;;;;23.09;42.41;101061.19;4903378;29;20044;-63
2021/06/04 00:36:07;;;;;;;4.38;3.53;;;;;;;22.99;42.72;101063.00;4904916;29;20045;-63
2021/06/04 00:38:35;;;;;;;3.97;3.67;;;;;;;23.03;42.88;101052.94;4902792;29;20502;-63
2021/06/04 00:41:11;;;;;;;4.15;3.75;;;;;;;23.00;42.98;101057.53;4905428;29;20053;-63
2021/06/04 00:43:38;;;;;;;6.97;3.90;;;;;;;22.96;43.17;101055.31;4909663;29;20526;-63
2021/06/04 00:46:07;;;;;;;5.00;3.70;;;;;;;22.93;43.21;101064.38;4918997;29;20048;-63
2021/06/04 00:48:37;;;;;;;4.50;4.10;;;;;;;22.91;43.54;101065.50;4918566;29;20044;-63
2021/06/04 00:51:18;;;;;;;6.10;4.10;;;;;;;22.93;43.48;101064.38;4915436;29;20097;-62
2021/06/04 00:53:48;;;;;;;6.50;3.83;;;;;;;22.87;43.83;101056.09;4921196;29;20044;-62
2021/06/04 00:56:20;;;;;;;5.45;3.88;;;;;;;22.83;43.81;101057.31;4907305;29;20068;-63
2021/06/04 00:58:48;;;;;;;10.50;4.70;;;;;;;22.79;43.81;101050.59;4904098;29;20132;-63
2021/06/04 01:01:18;;;;;;;5.38;3.65;;;;;;;22.78;43.69;101051.56;4902384;29;20055;-63
2021/06/04 01:03:56;;;;;;;6.97;3.53;;;;;;;22.82;43.25;101051.16;4906759;29;20503;-63
2021/06/04 01:06:32;;;;;;;5.55;3.67;;;;;;;22.84;42.57;101048.38;4916891;29;20047;-63
2021/06/04 01:09:29;;;;;;;4.05;3.58;;;;;;;22.83;42.39;101052.84;4922271;29;20059;-63
2021/06/04 01:12:12;;;;;;;3.70;3.30;;;;;;;22.83;42.07;101057.31;4906095;29;20084;-64
2021/06/04 01:15:04;;;;;;;5.38;3.72;;;;;;;22.80;42.15;101062.91;4908071;29;20044;-64
2021/06/04 01:17:47;;;;;;;7.70;3.65;;;;;;;22.81;41.90;101065.44;4902381;29;20059;-63
2021/06/04 01:20:19;;;;;;;5.82;4.55;;;;;;;22.82;41.86;101064.47;4906812;29;20052;-63
2021/06/04 01:23:05;;;;;;;7.53;3.38;;;;;;;22.82;41.67;101067.13;4904133;29;20040;-63
2021/06/04 01:25:50;;;;;;;5.53;3.90;;;;;;;22.79;41.70;101067.38;4905676;29;20135;-63
2021/06/04 01:28:17;;;;;;;6.45;4.00;;;;;;;22.80;41.83;101063.78;4910424;29;20044;-63
2021/06/04 01:30:54;;;;;;;5.90;3.50;;;;;;;22.79;41.72;101066.53;4907271;29;20041;-63
2021/06/04 01:33:26;;;;;;;5.03;3.88;;;;;;;22.78;42.09;101065.69;4919162;29;20452;-62
2021/06/04 01:35:57;;;;;;;;;;;;;;;22.75;41.89;101072.13;4907510;29;20131;-63
2021/06/04 01:38:29;;;;;;;3.70;3.40;;;;;;;22.75;41.65;101076.63;4908384;29;19938;-63
2021/06/04 01:41:03;;;;;;;6.07;3.65;;;;;;;22.77;41.88;101073.81;4910552;29;20063;-63
2021/06/04 01:43:38;;;;;;;5.22;3.13;;;;;;;22.73;42.11;101070.56;4906640;29;20040;-63
2021/06/04 01:46:20;;;;;;;4.18;3.75;;;;;;;22.73;41.82;101068.75;4907430;29;20131;-63
2021/06/04 01:48:51;;;;;;;9.90;4.53;;;;;;;22.74;41.66;101072.25;4906158;29;20463;-63
2021/06/04 01:51:27;;;;;;;7.10;3.80;;;;;;;22.69;43.29;101071.81;4908101;29;20057;-63
2021/06/04 01:54:15;;;;;;;4.40;4.00;;;;;;;22.65;44.11;101070.44;4912912;29;20638;-63
2021/06/04 01:56:49;;;;;;;7.93;3.88;;;;;;;22.55;45.19;101069.56;4907000;29;20055;-63
2021/06/04 01:59:34;;;;;;;6.25;4.38;;;;;;;22.45;45.58;101070.34;4921368;29;20050;-63
2021/06/04 02:02:15;;;;;;;6.47;4.28;;;;;;;22.45;45.12;101059.72;4928725;29;20406;-63
2021/06/04 02:04:50;;;;;;;13.25;5.40;;;;;;;22.39;44.65;101064.72;4915331;29;20044;-63
2021/06/04 02:07:22;;;;;;;5.05;4.00;;;;;;;22.31;45.07;101062.72;4918710;29;20048;-62
2021/06/04 02:09:50;;;;;;;4.85;4.35;;;;;;;22.29;44.96;101062.03;4917431;29;20127;-63
2021/06/04 02:12:25;;;;;;;6.65;4.60;;;;;;;22.16;45.38;101069.38;4932839;29;20050;-63
2021/06/04 02:15:12;;;;;;;4.65;4.13;;;;;;;22.21;44.99;101072.44;4917343;29;20546;-63
2021/06/04 02:17:56;;;;;;;7.53;5.10;;;;;;;21.73;46.88;101094.19;4932638;29;20127;-64
2021/06/04 02:20:42;;;;;;;6.88;6.22;;;;;;;21.43;48.35;101082.50;4929679;29;20415;-64
2021/06/04 02:23:28;;;;;;;7.28;5.88;;;;;;;21.58;47.64;101084.88;4916482;29;20044;-63
2021/06/04 02:26:07;;;;;;;7.13;6.53;;;;;;;21.39;48.73;101096.97;4917201;29;20071;-64
2021/06/04 02:28:51;;;;;;;7.38;6.70;;;;;;;21.09;49.26;101084.41;4917932;29;20075;-63
2021/06/04 02:31:28;;;;;;;7.22;5.85;;;;;;;21.25;48.95;101091.94;4917057;29;20406;-64
2021/06/04 02:34:23;;;;;;;8.63;7.10;;;;;;;21.10;49.74;101101.16;4916942;29;20075;-64
2021/06/04 02:37:02;;;;;;;9.73;7.82;;;;;;;21.07;49.79;101091.63;4916027;29;20115;-64
2021/06/04 02:39:36;;;;;;;12.68;7.15;;;;;;;21.19;49.74;101095.06;4916481;29;20052;-65
2021/06/04 02:42:20;;;;;;;9.00;8.13;;;;;;;20.94;50.93;101101.53;4917401;29;20048;-64
2021/06/04 02:44:55;;;;;;;13.60;10.63;;;;;;;21.01;51.17;101112.47;4915541;29;20056;-63
2021/06/04 02:47:29;;;;;;;15.40;10.30;;;;;;;21.02;51.32;101124.75;4905419;29;20048;-63
2021/06/04 02:49:59;;;;;;;11.63;10.52;;;;;;;21.03;51.64;101121.97;4921056;29;20131;-63
2021/06/04 02:52:26;;;;;;;14.25;10.98;;;;;;;21.05;51.40;101114.78;4908937;29;20510;-63
2021/06/04 02:54:57;;;;;;;13.80;12.27;;;;;;;21.09;51.51;101118.00;4910760;29;20040;-63
2021/06/04 02:57:28;;;;;;;13.93;11.50;;;;;;;21.11;51.42;101116.94;4922599;29;20048;-63
2021/06/04 02:59:56;;;;;;;17.42;11.40;;;;;;;21.12;51.19;101115.94;4909742;29;20044;-63
2021/06/04 03:02:30;;;;;;;12.85;10.55;;;;;;;21.11;51.28;101118.72;4920053;29;20479;-63
2021/06/04 03:05:01;;;;;;;15.18;10.73;;;;;;;21.16;51.23;101119.22;4902336;29;20380;-63
2021/06/04 03:07:31;;;;;;;13.38;11.20;;;;;;;21.15;51.31;101123.66;4903179;29;20048;-63
2021/06/04 03:10:07;;;;;;;13.23;10.95;;;;;;;21.08;51.67;101113.66;4905507;29;20052;-63
2021/06/04 03:12:41;;;;;;;17.65;10.10;;;;;;;21.04;51.71;101115.75;4906503;29;20465;-63
2021/06/04 03:15:37;;;;;;;15.05;10.82;;;;;;;21.05;51.33;101112.13;4908383;29;20418;-62
2021/06/04 03:18:12;;;;;;;14.43;10.07;;;;;;;21.02;51.27;101116.81;4922118;29;20041;-62
2021/06/04 03:20:44;;;;;;;15.80;11.20;;;;;;;20.94;51.29;101112.13;4899792;29;20045;-62
2021/06/04 03:23:19;;;;;;;15.25;10.63;;;;;;;20.94;51.10;101114.78;4907330;29;20055;-62
2021/06/04 03:25:53;;;;;;;14.30;12.80;;;;;;;20.95;51.13;101108.53;4920238;29;20064;-63
2021/06/04 03:28:24;;;;;;;15.35;12.35;;;;;;;20.99;51.13;101114.44;4904896;29;20040;-63
2021/06/04 03:30:52;;;;;;;14.13;12.73;;;;;;;20.99;51.37;101117.06;4906890;29;20051;-63
2021/06/04 03:33:23;;;;;;;14.27;12.77;;;;;;;21.01;51.33;101112.47;4907598;29;20123;-63
2021/06/04 03:35:55;;;;;;;13.45;12.05;;;;;;;21.05;51.07;101124.53;4913668;29;20102;-63
2021/06/04 03:38:23;;;;;;;18.17;13.20;;;;;;;20.99;51.31;101114.44;4928056;29;20052;-61
2021/06/04 03:40:55;;;;;;;13.50;11.77;;;;;;;21.00;51.19;101119.59;4917669;29;20064;-63
2021/06/04 03:43:24;;;;;;;13.35;11.90;;;;;;;21.07;50.88;101117.28;4902807;29;20053;-63
2021/06/04 03:45:52;;;;;;;13.00;11.73;;;;;;;21.08;51.11;101119.81;4917458;29;20048;-62
2021/06/04 03:48:31;;;;;;;14.23;12.45;;;;;;;21.06;51.16;101113.78;4912340;29;20041;-60
2021/06/04 03:51:02;;;;;;;13.32;11.85;;;;;;;21.08;51.29;101121.63;4906157;29;20040;-60
2021/06/04 03:53:29;;;;;;;13.93;11.10;;;;;;;21.05;51.37;101121.88;4901666;29;20704;-62
2021/06/04 03:55:57;;;;;;;13.10;10.57;;;;;;;20.94;52.09;101128.03;4900904;29;20147;-62
2021/06/04 03:58:24;;;;;;;13.07;10.80;;;;;;;20.89;52.41;101120.44;4913210;29;20048;-61
2021/06/04 04:01:00;;;;;;;13.45;10.95;;;;;;;20.77;52.99;101134.66;4916300;29;20044;-62
2021/06/04 04:03:28;;;;;;;12.55;11.18;;;;;;;20.66;52.97;101132.00;4914093;29;20088;-61
2021/06/04 04:05:55;;;;;;;15.73;11.43;;;;;;;20.66;52.84;101130.19;4930152;29;20040;-61
2021/06/04 04:08:26;;;;;;;14.15;11.27;;;;;;;20.74;52.47;101131.41;4916494;29;20072;-61
2021/06/04 04:10:54;;;;;;;13.32;11.25;;;;;;;20.73;52.85;101137.69;4915830;29;20082;-62
2021/06/04 04:13:22;;;;;;;13.90;11.60;;;;;;;20.71;53.05;101131.66;4915516;29;20095;-61
2021/06/04 04:15:51;;;;;;;13.45;12.10;;;;;;;20.66;53.42;101129.34;4916085;29;20395;-62
2021/06/04 04:18:18;;;;;;;17.00;14.38;;;;;;;20.73;53.10;101129.75;4916370;29;20143;-63
2021/06/04 04:20:49;;;;;;;16.02;13.18;;;;;;;20.82;53.02;101135.13;4914686;29;20132;-62
2021/06/04 04:23:23;;;;;;;16.25;13.82;;;;;;;20.80;53.01;101131.78;4914357;29;20111;-61
2021/06/04 04:25:49;;;;;;;14.07;12.20;;;;;;;20.84;52.61;101135.88;4907220;29;20495;-60
2021/06/04 04:28:22;;;;;;;15.55;10.52;;;;;;;20.77;52.15;101139.94;4913995;29;20036;-60
2021/06/04 04:30:49;;;;;;;13.60;11.10;;;;;;;20.86;51.73;101141.88;4914102;29;20116;-61
2021/06/04 04:33:17;;;;;;;15.40;11.40;;;;;;;20.86;51.79;101143.69;4915726;29;20099;-62
2021/06/04 04:35:44;;;;;;;18.25;11.88;;;;;;;20.85;52.43;101140.19;4915218;29;20558;-62
2021/06/04 04:38:17;;;;;;;14.90;11.65;;;;;;;20.97;52.46;101135.72;4914447;29;20036;-61
2021/06/04 04:40:44;;;;;;;14.45;11.77;;;;;;;21.03;52.37;101145.00;4913239;29;20123;-61
2021/06/04 04:43:11;;;;;;;12.77;11.57;;;;;;;21.08;52.29;101141.00;4914337;29;20380;-62
2021/06/04 04:45:39;;;;;;;15.93;12.00;;;;;;;21.11;52.26;101145.25;4915726;29;20055;-62
2021/06/04 04:48:07;;;;;;;13.43;12.20;;;;;;;21.19;52.24;101138.34;4911841;29;20036;-60
2021/06/04 04:50:37;;;;;;;16.42;12.75;;;;;;;21.28;52.12;101142.06;4898638;29;20412;-62
2021/06/04 04:53:05;;;;;;;13.32;12.00;;;;;;;21.37;51.98;101137.88;4911456;29;20052;-63
2021/06/04 04:55:35;;;;;;;16.35;12.68;;;;;;;21.60;51.42;101138.63;4914446;29;20060;-63
2021/06/04 04:58:03;;;;;;;14.73;12.85;;;;;;;21.81;50.87;101144.00;4915510;29;20103;-64
2021/06/04 05:00:31;;;;;;;14.88;12.68;;;;;;;22.01;50.20;101142.34;4902351;29;20119;-64
2021/06/04 05:02:59;;;;;;;12.75;11.13;;;;;;;22.11;49.60;101145.94;4919634;29;20119;-62
2021/06/04 05:05:29;;;;;;;14.75;10.50;;;;;;;22.37;48.82;101147.22;4917636;29;20996;-65
2021/06/04 05:07:57;;;;;;;19.13;10.57;;;;;;;22.32;48.64;101157.38;4919433;29;20054;-64
2021/06/04 05:10:24;;;;;;;11.63;10.57;;;;;;;22.47;48.35;101157.88;4919808;29;20127;-62
2021/06/04 05:12:51;;;;;;;11.65;10.10;;;;;;;22.81;47.47;101157.63;4919358;29;20044;-64
2021/06/04 05:15:23;;;;;;;14.43;10.25;;;;;;;23.02;47.55;101165.59;4919079;29;20058;-64
2021/06/04 05:17:50;;;;;;;11.55;9.40;;;;;;;23.36;46.33;101163.44;4919310;29;20499;-64
2021/06/04 05:20:18;;;;;;;14.00;9.20;;;;;;;23.66;45.89;101165.19;4918512;29;20122;-64
2021/06/04 05:22:45;;;;;;;12.93;9.05;;;;;;;23.97;44.68;101163.19;4919089;29;20100;-62
2021/06/04 05:25:15;;;;;;;10.75;8.70;;;;;;;23.94;43.41;101160.84;4918101;29;20143;-63
2021/06/04 05:27:44;;;;;;;9.88;8.57;;;;;;;24.19;42.42;101164.75;4917369;29;20127;-64
2021/06/04 05:30:17;;;;;;;12.73;10.05;;;;;;;24.48;41.39;101160.22;4914460;29;20131;-63
2021/06/04 05:32:44;;;;;;;8.13;7.30;;;;;;;24.39;41.15;101160.22;4918445;29;20127;-64
2021/06/04 05:35:12;;;;;;;9.85;7.65;;;;;;;24.17;41.67;101166.69;4916909;29;20443;-63
2021/06/04 05:37:39;;;;;;;9.60;7.28;;;;;;;24.25;42.08;101169.50;4909443;29;20070;-63
2021/06/04 05:40:15;;;;;;;12.05;7.90;;;;;;;24.15;41.16;101168.66;4914654;29;20147;-63
2021/06/04 05:42:42;;;;;;;14.75;9.05;;;;;;;24.16;40.94;101173.00;4910748;29;20487;-64
2021/06/04 05:45:17;;;;;;;11.07;8.43;;;;;;;24.58;40.69;101170.84;4918819;29;20099;-63
2021/06/04 05:49:35;;;;;;;15.45;7.72;;;;;;;25.33;40.19;101169.00;5103076;27;20125;-63
2021/06/04 05:52:08;;;;;;;14.27;7.93;;;;;;;25.39;41.02;101171.06;5086153;28;20078;-76
2021/06/04 05:54:40;;;;;;;9.95;8.82;;;;;;;25.48;39.52;101172.81;5082656;28;20056;-62
2021/06/04 05:57:08;;;;;;;9.80;7.63;;;;;;;25.54;39.71;101168.72;5081838;28;20036;-62
2021/06/04 05:59:35;;;;;;;10.23;8.50;;;;;;;25.74;40.20;101170.28;5077210;28;20442;-64
2021/06/04 06:02:03;;;;;;;10.88;8.85;;;;;;;25.64;39.94;101163.31;5082827;28;20044;-64
2021/06/04 06:04:30;;;;;;;8.68;7.85;;;;;;;26.53;38.77;101161.38;5077317;28;20041;-62
2021/06/04 06:06:57;;;;;;;13.07;9.25;;;;;;;26.47;38.70;101164.66;5084557;28;20094;-64
2021/06/04 06:09:24;;;;;;;14.00;10.25;;;;;;;26.68;38.58;101168.81;5082524;28;20136;-64
2021/06/04 06:11:51;;;;;;;12.65;8.93;;;;;;;26.73;38.60;101169.16;5078739;28;20055;-63
2021/06/04 06:14:19;;;;;;;11.18;9.27;;;;;;;26.79;37.90;101176.53;5072939;28;20509;-65
2021/06/04 06:16:46;;;;;;;13.50;10.38;;;;;;;27.15;36.48;101178.06;5074883;28;20094;-61
2021/06/04 06:19:19;;;;;;;12.75;8.95;;;;;;;27.44;36.51;101184.03;5071831;28;20509;-62
2021/06/04 06:21:50;;;;;;;9.68;8.40;;;;;;;28.06;35.89;101176.41;5074599;28;20552;-62
2021/06/04 06:24:18;;;;;;;9.95;7.88;;;;;;;28.57;35.23;101185.09;5072617;28;20044;-61
2021/06/04 06:26:46;;;;;;;10.50;9.48;;;;;;;28.35;35.53;101181.28;5078124;28;20364;-61
2021/06/04 06:29:16;;;;;;;15.95;9.77;;;;;;;28.49;35.30;101179.75;5087554;28;20499;-63
2021/06/04 06:31:47;;;;;;;12.35;9.70;;;;;;;28.51;34.98;101177.75;5079436;28;20342;-63
2021/06/04 06:34:15;;;;;;;9.30;8.40;;;;;;;29.07;34.63;101179.41;5075187;28;20398;-63
2021/06/04 06:36:45;;;;;;;12.90;9.38;;;;;;;28.60;34.85;101169.47;5084980;28;20089;-64
2021/06/04 06:39:19;;;;;;;10.45;9.45;;;;;;;28.53;34.65;101179.22;5072131;28;20075;-63
2021/06/04 06:41:47;;;;;;;14.15;9.20;;;;;;;28.45;34.80;101174.72;5069602;28;20051;-64
2021/06/04 06:44:16;;;;;;;10.38;7.72;;;;;;;28.74;34.96;101177.84;5068429;28;20441;-63
2021/06/04 06:46:43;;;;;;;14.38;6.28;;;;;;;28.91;34.08;101180.28;5068423;28;20035;-64
2021/06/04 06:49:11;;;;;;;9.43;5.82;;;;;;;29.42;33.41;101177.22;5078920;28;20044;-62
2021/06/04 06:51:38;;;;;;;7.63;5.43;;;;;;;30.25;31.19;101171.91;5068280;28;20070;-62
2021/06/04 06:54:15;;;;;;;13.98;5.38;;;;;;;30.35;31.72;101176.19;5067156;28;20128;-62
2021/06/04 06:56:43;;;;;;;11.55;5.75;;;;;;;30.43;31.63;101179.63;5066626;28;20052;-61
2021/06/04 06:59:11;;;;;;;14.27;4.60;;;;;;;30.85;31.20;101177.38;5066742;28;20095;-62
2021/06/04 07:01:39;;;;;;;9.07;4.65;;;;;;;31.13;29.57;101175.66;5053676;28;20047;-61
2021/06/04 07:04:07;;;;;;;7.60;4.60;;;;;;;30.67;28.44;101178.53;5041608;28;20120;-62
2021/06/04 07:06:37;;;;;;;11.00;4.50;;;;;;;30.36;28.29;101183.22;5041662;28;20045;-61
2021/06/04 07:09:13;;;;;;;11.25;3.80;;;;;;;30.33;28.08;101183.63;5045253;28;20054;-62
2021/06/04 07:11:54;;;;;;;10.27;5.60;;;;;;;30.80;27.99;101186.00;5043949;28;20037;-61
2021/06/04 07:14:26;;;;;;;4.10;3.50;;;;;;;31.74;27.14;101184.19;5043776;28;20499;-62
2021/06/04 07:16:54;;;;;;;5.22;4.63;;;;;;;31.85;25.76;101190.13;5042538;28;20041;-62
2021/06/04 07:19:22;;;;;;;9.30;5.65;;;;;;;31.91;26.11;101197.47;5046795;28;20041;-62
2021/06/04 07:21:49;;;;;;;25.27;5.20;;;;;;;32.51;26.18;101179.91;5040990;28;20510;-61
2021/06/04 07:24:18;;;;;;;9.80;4.28;;;;;;;32.14;26.37;101183.75;5040431;28;20064;-65
2021/06/04 07:26:48;;;;;;;6.18;4.10;;;;;;;32.36;26.41;101187.28;5041978;28;20037;-63
2021/06/04 07:29:18;;;;;;;4.97;4.55;;;;;;;32.24;25.51;101197.75;5041475;28;20045;-64
2021/06/04 07:31:46;;;;;;;7.93;3.97;;;;;;;32.84;25.78;101197.09;5041193;28;20059;-65
2021/06/04 07:34:14;;;;;;;4.15;3.75;;;;;;;32.66;26.11;101196.81;5036334;28;20102;-64
2021/06/04 07:36:44;;;;;;;7.03;4.78;;;;;;;32.96;26.15;101193.88;5041146;28;20037;-65
2021/06/04 07:39:16;;;;;;;6.28;4.53;;;;;;;33.64;25.01;101192.03;5041813;28;20159;-63
2021/06/04 07:41:44;;;;;;;8.65;4.40;;;;;;;33.91;24.89;101201.00;5046123;28;20098;-63
2021/06/04 07:44:14;;;;;;;7.68;3.60;;;;;;;34.33;24.04;101188.13;5041225;28;20042;-64
2021/06/04 07:46:43;;;;;;;6.38;3.92;;;;;;;34.50;23.63;101191.25;5046147;28;20171;-63
2021/06/04 07:49:11;;;;;;;11.93;4.28;;;;;;;34.38;23.86;101193.75;5044729;28;20095;-64
2021/06/04 07:51:41;;;;;;;8.23;3.67;;;;;;;34.83;23.08;101186.56;5044227;28;20048;-63
2021/06/04 07:54:11;;;;;;;8.60;5.35;;;;;;;35.23;22.54;101194.56;5040536;28;20063;-64
2021/06/04 07:56:42;;;;;;;9.60;5.00;;;;;;;35.11;22.67;101190.88;5046529;28;20992;-64
2021/06/04 07:59:10;;;;;;;7.32;4.50;;;;;;;35.27;23.24;101181.44;5042798;28;20140;-64
2021/06/04 08:01:39;;;;;;;7.25;3.47;;;;;;;35.05;22.76;101189.00;5043120;28;20052;-63
2021/06/04 08:04:07;;;;;;;8.18;4.10;;;;;;;34.96;22.84;101184.91;5039156;28;20122;-63
2021/06/04 08:06:34;;;;;;;13.85;4.22;;;;;;;35.11;22.30;101182.75;5044570;28;20444;-63
2021/06/04 08:09:02;;;;;;;10.20;3.55;;;;;;;34.86;23.25;101182.63;5041622;28;20049;-64
2021/06/04 08:11:33;;;;;;;5.63;3.03;;;;;;;35.30;22.98;101181.81;5051795;28;20128;-65
2021/06/04 08:14:06;;;;;;;6.10;3.13;;;;;;;35.24;23.07;101179.97;5053068;28;20067;-65
2021/06/04 08:16:36;;;;;;;5.25;3.97;;;;;;;34.89;23.10;101187.59;5053304;28;20068;-63
2021/06/04 08:19:04;;;;;;;6.47;3.92;;;;;;;35.06;22.03;101183.41;5053293;28;20098;-65
2021/06/04 08:21:36;;;;;;;4.88;3.42;;;;;;;34.35;23.22;101184.16;5041341;28;20048;-64
2021/06/04 08:24:04;;;;;;;4.95;3.75;;;;;;;34.35;23.97;101176.03;5044645;28;20057;-64
2021/06/04 08:26:33;;;;;;;5.80;4.00;;;;;;;34.57;22.93;101178.53;5052281;28;20131;-65
2021/06/04 08:29:03;;;;;;;4.50;3.85;;;;;;;34.57;23.12;101179.38;5040507;28;20051;-64
2021/06/04 08:31:30;;;;;;;7.82;3.25;;;;;;;35.23;22.27;101181.00;5044606;28;20056;-66
2021/06/04 08:33:57;;;;;;;13.85;3.47;;;;;;;35.04;22.62;101182.75;5043373;28;20457;-65
2021/06/04 08:36:31;;;;;;;4.38;3.60;;;;;;;34.87;22.13;101185.09;5045322;28;20399;-66
2021/06/04 08:39:01;;;;;;;5.57;3.55;;;;;;;34.58;22.43;101178.34;5041928;28;20048;-65
2021/06/04 08:41:37;;;;;;;4.93;3.72;;;;;;;34.01;23.07;101177.13;5039542;28;20042;-66
2021/06/04 08:44:35;;;;;;;4.97;3.13;;;;;;;34.06;24.02;101184.63;5041228;28;20037;-65
2021/06/04 08:47:17;;;;;;;6.40;4.00;;;;;;;33.79;23.33;101184.56;5041238;28;20091;-67
2021/06/04 08:49:49;;;;;;;10.20;3.42;;;;;;;34.09;23.30;101176.06;5039061;28;20052;-63
2021/06/04 08:52:19;;;;;;;5.97;3.53;;;;;;;34.13;23.52;101171.91;5039297;28;20583;-63
2021/06/04 08:54:59;;;;;;;4.43;3.70;;;;;;;33.45;24.38;101182.88;5039803;28;20051;-63
2021/06/04 08:57:32;;;;;;;8.73;4.85;;;;;;;32.93;24.77;101180.78;5041931;28;20045;-62
2021/06/04 09:00:00;;;;;;;10.20;4.70;;;;;;;32.34;25.17;101169.38;5041631;28;20124;-62
2021/06/04 09:02:38;;;;;;;9.57;5.63;;;;;;;32.22;26.10;101176.34;5040546;28;20045;-62
2021/06/04 09:05:13;;;;;;;10.23;4.53;;;;;;;32.14;26.77;101184.59;5039591;28;20047;-62
2021/06/04 09:07:46;;;;;;;6.80;4.63;;;;;;;31.90;27.72;101177.72;5041625;28;20398;-62
2021/06/04 09:10:31;;;;;;;;;;;;;;;32.19;27.42;101171.34;5043587;28;20179;-61
2021/06/04 09:13:08;;;;;;;11.57;4.70;;;;;;;32.12;27.37;101172.31;5042134;28;19924;-61
2021/06/04 09:15:37;;;;;;;5.90;4.38;;;;;;;31.89;27.65;101180.63;5040147;28;20049;-63
2021/06/04 09:18:13;;;;;;;8.68;4.30;;;;;;;31.44;27.93;101177.28;5039029;28;20045;-59
2021/06/04 09:20:55;;;;;;;11.55;3.92;;;;;;;31.69;28.36;101175.84;5036582;28;20044;-61
2021/06/04 09:23:29;;;;;;;9.13;4.30;;;;;;;31.49;28.39;101174.84;5040791;28;20045;-61
2021/06/04 09:25:57;;;;;;;11.00;5.10;;;;;;;31.48;27.80;101175.84;5043199;28;20045;-61
2021/06/04 09:28:28;;;;;;;9.07;4.45;;;;;;;31.16;27.44;101172.59;5042194;28;20496;-61
2021/06/04 09:30:59;;;;;;;11.68;5.95;;;;;;;31.22;28.04;101169.13;5046408;28;20120;-61
2021/06/04 09:33:43;;;;;;;11.20;5.30;;;;;;;31.13;28.54;101170.25;5037645;28;20059;-60
2021/06/04 09:36:18;;;;;;;9.57;4.80;;;;;;;31.04;28.24;101166.81;5038031;28;20747;-61
2021/06/04 09:38:54;;;;;;;11.10;4.60;;;;;;;30.91;28.81;101165.84;5043215;28;20045;-61
2021/06/04 09:41:33;;;;;;;7.45;5.28;;;;;;;30.99;28.00;101163.88;5037304;28;20045;-60
2021/06/04 09:44:22;;;;;;;8.85;4.00;;;;;;;31.09;27.34;101163.56;5041722;28;20068;-61
2021/06/04 09:46:58;;;;;;;11.65;4.57;;;;;;;30.75;27.50;101161.50;5037393;28;20132;-61
2021/06/04 09:49:34;;;;;;;7.57;3.85;;;;;;;30.90;27.78;101172.25;5040997;28;20465;-61
2021/06/04 09:52:20;;;;;;;10.10;4.25;;;;;;;30.43;28.28;101165.34;5042853;28;20038;-61
2021/06/04 09:55:10;;;;;;;7.72;4.10;;;;;;;30.81;28.04;101159.91;5043243;28;20063;-60
2021/06/04 09:57:54;;;;;;;7.63;5.07;;;;;;;30.73;28.10;101158.97;5036433;28;20073;-61
2021/06/04 10:00:30;;;;;;;5.57;5.00;;;;;;;30.24;28.79;101164.84;5043175;28;20049;-61
2021/06/04 10:03:18;;;;;;;10.23;5.32;;;;;;;30.33;29.69;101160.25;5038874;28;20072;-60
2021/06/04 10:05:45;;;;;;;6.82;4.63;;;;;;;30.56;28.86;101160.16;5042420;28;20071;-60
2021/06/04 10:08:15;;;;;;;8.73;5.57;;;;;;;30.28;29.22;101157.25;5040678;28;20039;-61
2021/06/04 10:10:42;;;;;;;10.02;7.00;;;;;;;30.27;29.42;101151.06;5040348;28;21324;-61
2021/06/04 10:13:36;;;;;;;12.05;5.78;;;;;;;30.18;29.59;101149.47;5037445;28;20523;-60
2021/06/04 10:16:19;;;;;;;;;;;;;;;30.02;30.60;101150.41;5036124;28;21527;-60
2021/06/04 10:18:46;;;;;;;9.00;5.45;;;;;;;30.19;29.69;101137.69;5039921;28;20291;-60
2021/06/04 10:21:31;;;;;;;8.35;5.20;;;;;;;30.33;30.35;101149.47;5041582;28;20514;-61
2021/06/04 10:24:01;;;;;;;9.32;5.97;;;;;;;29.89;30.50;101146.69;5043231;28;20075;-59
2021/06/04 10:26:36;;;;;;;12.57;5.57;;;;;;;29.91;30.28;101141.97;5039921;28;20045;-60
2021/06/04 10:29:02;;;;;;;8.63;5.38;;;;;;;30.09;30.46;101145.13;5038664;28;20038;-61
2021/06/04 10:31:44;;;;;;;7.80;4.30;;;;;;;30.31;30.61;101142.59;5037334;28;20133;-62
2021/06/04 10:34:50;;;;;;;14.88;6.38;;;;;;;30.00;30.40;101148.94;5039284;28;20551;-61
2021/06/04 10:37:23;;;;;;;15.75;5.68;;;;;;;29.91;30.22;101147.31;5043118;28;20041;-61
2021/06/04 10:40:21;;;;;;;5.30;4.07;;;;;;;30.06;30.30;101147.38;5043836;28;20446;-60
2021/06/04 10:43:18;;;;;;;6.07;5.18;;;;;;;30.19;30.20;101148.44;5043073;28;20128;-62
2021/06/04 10:45:51;;;;;;;7.97;5.53;;;;;;;30.19;30.65;101142.22;5054418;28;20049;-61
2021/06/04 10:48:36;;;;;;;5.38;4.88;;;;;;;30.03;30.21;101135.13;5054937;28;20118;-61
2021/06/04 10:51:43;;;;;;;6.13;4.95;;;;;;;29.93;30.33;101138.06;5054215;28;20478;-62
2021/06/04 10:54:31;;;;;;;9.07;4.82;;;;;;;30.13;30.50;101124.97;5029668;28;20047;-60
2021/06/04 10:57:06;;;;;;;6.32;4.40;;;;;;;30.19;30.80;101134.97;5036177;28;20041;-60
2021/06/04 10:59:42;;;;;;;6.05;5.07;;;;;;;30.21;31.15;101135.66;5045494;28;20049;-60
2021/06/04 11:02:44;;;;;;;6.90;5.47;;;;;;;30.02;30.50;101130.75;5050979;28;20124;-61
2021/06/04 11:05:33;;;;;;;8.05;5.22;;;;;;;30.08;30.54;101127.34;5045731;28;20131;-63
2021/06/04 11:08:13;;;;;;;7.25;5.13;;;;;;;30.10;30.06;101135.25;5061102;28;20048;-63
2021/06/04 11:10:58;;;;;;;9.13;4.85;;;;;;;30.24;29.91;101134.44;5063700;28;20144;-63
2021/06/04 11:13:36;;;;;;;8.95;5.88;;;;;;;30.32;29.51;101126.31;5057570;28;20060;-60
2021/06/04 11:16:56;;;;;;;13.05;5.95;;;;;;;30.34;30.13;101118.03;5050607;28;20037;-62
2021/06/04 11:19:49;;;;;;;10.70;5.70;;;;;;;30.36;29.83;101106.09;5045139;28;20049;-65
2021/06/04 11:22:45;;;;;;;8.23;5.90;;;;;;;30.35;30.26;101111.63;5053488;28;20040;-65
2021/06/04 11:25:35;;;;;;;7.85;5.07;;;;;;;30.35;30.85;101104.41;5051809;28;20127;-66
2021/06/04 11:28:21;;;;;;;10.00;5.93;;;;;;;30.18;30.60;101106.44;5042582;28;20155;-65
2021/06/04 11:30:53;;;;;;;11.60;6.68;;;;;;;29.88;30.27;101110.06;5050088;28;20061;-65
2021/06/04 11:33:27;;;;;;;7.15;6.03;;;;;;;30.02;30.09;101109.25;5053967;28;20572;-67
2021/06/04 11:36:07;;;;;;;8.95;5.28;;;;;;;29.94;29.89;101103.97;5051106;28;20060;-65
2021/06/04 11:38:40;;;;;;;;;;;;;;;29.89;30.53;101103.69;5053990;28;20045;-67
2021/06/04 11:41:21;;;;;;;8.40;5.45;;;;;;;29.98;30.26;101091.81;5053420;28;19924;-64
2021/06/04 11:43:54;;;;;;;5.65;4.75;;;;;;;30.03;30.20;101092.09;5051218;28;20040;-66
2021/06/04 11:46:39;;;;;;;18.58;5.10;;;;;;;29.77;29.08;101091.69;5055072;28;20580;-64
2021/06/04 11:49:13;;;;;;;5.70;5.00;;;;;;;29.61;28.96;101088.13;5053226;28;20053;-66
2021/06/04 11:51:51;;;;;;;4.85;4.05;;;;;;;29.80;28.64;101084.09;5053620;28;20063;-67
2021/06/04 11:54:30;;;;;;;10.40;4.97;;;;;;;29.85;28.18;101079.00;5055329;28;20037;-66